createdAt,value
2022-09-24T00:01:24.054Z,27.67
2022-09-24T00:03:54.261Z,28.13
2022-09-24T00:06:22.533Z,28.03
2022-09-24T00:08:51.945Z,28.60
2022-09-24T00:11:21.790Z,26.97
2022-09-24T00:13:50.456Z,24.57
2022-09-24T00:16:19.490Z,26.07
2022-09-24T00:18:47.927Z,25.40
2022-09-24T00:21:18.949Z,24.77
2022-09-24T00:23:49.765Z,24.50
2022-09-24T00:26:35.670Z,23.00
2022-09-24T00:29:03.995Z,23.67
2022-09-24T00:31:32.326Z,23.50
2022-09-24T00:34:01.077Z,23.17
2022-09-24T00:36:30.699Z,23.63
2022-09-24T00:38:59.480Z,21.77
2022-09-24T00:41:29.901Z,23.47
2022-09-24T00:43:57.990Z,22.57
2022-09-24T00:46:28.067Z,22.33
2022-09-24T00:48:58.897Z,22.43
2022-09-24T00:51:27.759Z,24.90
2022-09-24T00:54:01.368Z,22.13
2022-09-24T00:56:30.644Z,23.50
2022-09-24T00:58:58.900Z,24.50
2022-09-24T01:01:27.169Z,24.07
2022-09-24T01:03:56.568Z,24.70
2022-09-24T01:06:24.851Z,25.17
2022-09-24T01:08:52.977Z,25.67
2022-09-24T01:11:31.544Z,23.97
2022-09-24T01:14:13.172Z,25.33
2022-09-24T01:16:46.153Z,24.43
2022-09-24T01:19:25.762Z,24.60
2022-09-24T01:21:56.437Z,23.73
2022-09-24T01:24:59.209Z,25.10
2022-09-24T01:27:35.408Z,25.17
2022-09-24T01:30:06.887Z,24.73
2022-09-24T01:32:37.457Z,24.90
2022-09-24T01:35:09.740Z,24.47
2022-09-24T01:37:38.730Z,24.33
2022-09-24T01:40:07.762Z,25.40
2022-09-24T01:42:36.986Z,23.43
2022-09-24T01:45:08.660Z,22.87
2022-09-24T01:47:39.891Z,21.30
2022-09-24T01:50:09.294Z,21.50
2022-09-24T01:52:41.148Z,22.80
2022-09-24T01:55:09.494Z,21.73
2022-09-24T01:57:40.269Z,22.10
2022-09-24T02:00:12.161Z,21.23
2022-09-24T02:02:42.905Z,22.93
2022-09-24T02:05:14.053Z,22.03
2022-09-24T02:07:43.715Z,21.97
2022-09-24T02:10:15.724Z,22.13
2022-09-24T02:12:44.171Z,22.83
2022-09-24T02:15:17.541Z,22.47
2022-09-24T02:17:47.233Z,24.13
2022-09-24T02:20:16.546Z,23.03
2022-09-24T02:22:44.708Z,23.13
2022-09-24T02:25:15.642Z,23.23
2022-09-24T02:27:43.757Z,22.73
2022-09-24T02:30:14.885Z,23.87
2022-09-24T02:32:43.033Z,22.00
2022-09-24T02:35:11.011Z,22.87
2022-09-24T02:37:39.974Z,21.80
2022-09-24T02:40:09.619Z,21.93
2022-09-24T02:42:38.325Z,21.97
2022-09-24T02:45:07.328Z,21.13
2022-09-24T02:47:37.096Z,22.03
2022-09-24T02:50:06.020Z,22.43
2022-09-24T02:52:34.335Z,22.00
2022-09-24T02:55:02.483Z,21.73
2022-09-24T02:57:30.572Z,21.63
2022-09-24T02:59:58.921Z,22.23
2022-09-24T03:02:27.451Z,20.93
2022-09-24T03:04:57.026Z,22.07
2022-09-24T03:07:25.227Z,22.13
2022-09-24T03:09:53.319Z,21.87
2022-09-24T03:12:21.655Z,22.30
2022-09-24T03:14:49.754Z,22.67
2022-09-24T03:17:17.887Z,21.53
2022-09-24T03:19:46.329Z,21.27
2022-09-24T03:22:15.927Z,21.73
2022-09-24T03:24:44.012Z,21.13
2022-09-24T03:27:12.247Z,20.90
2022-09-24T03:29:58.235Z,20.93
2022-09-24T03:32:26.642Z,21.67
2022-09-24T03:34:55.435Z,23.07
2022-09-24T03:37:25.075Z,23.30
2022-09-24T03:39:53.344Z,22.70
2022-09-24T03:42:21.505Z,23.30
2022-09-24T03:44:49.678Z,22.17
2022-09-24T03:47:18.163Z,21.93
2022-09-24T03:49:46.248Z,22.77
2022-09-24T03:52:14.635Z,21.83
2022-09-24T03:54:44.206Z,21.60
2022-09-24T03:57:14.983Z,21.77
2022-09-24T03:59:43.178Z,21.83
2022-09-24T04:02:11.565Z,22.03
2022-09-24T04:04:40.128Z,21.33
2022-09-24T04:07:08.267Z,20.73
2022-09-24T04:09:36.683Z,19.77
2022-09-24T04:12:06.847Z,20.57
2022-09-24T04:14:35.086Z,19.83
2022-09-24T04:17:04.035Z,20.27
2022-09-24T04:19:33.576Z,20.37
2022-09-24T04:22:01.674Z,21.50
2022-09-24T04:24:29.781Z,20.50
2022-09-24T04:26:57.983Z,21.53
2022-09-24T04:29:27.646Z,20.43
2022-09-24T04:31:55.800Z,21.27
2022-09-24T04:34:23.886Z,20.70
2022-09-24T04:36:52.222Z,20.30
2022-09-24T04:39:22.508Z,21.30
2022-09-24T04:41:50.729Z,20.20
2022-09-24T04:44:19.132Z,21.70
2022-09-24T04:46:49.219Z,23.07
2022-09-24T04:49:17.476Z,21.03
2022-09-24T04:51:45.649Z,21.13
2022-09-24T04:54:14.124Z,20.37
2022-09-24T04:56:42.310Z,20.13
2022-09-24T04:59:10.460Z,20.03
2022-09-24T05:01:38.976Z,21.03
2022-09-24T05:04:08.747Z,21.03
2022-09-24T05:06:37.361Z,21.53
2022-09-24T05:09:09.032Z,21.20
2022-09-24T05:11:40.478Z,21.53
2022-09-24T05:14:08.649Z,19.93
2022-09-24T05:16:36.900Z,21.80
2022-09-24T05:19:05.634Z,21.97
2022-09-24T05:21:35.469Z,22.53
2022-09-24T05:24:03.957Z,22.10
2022-09-24T05:26:49.953Z,22.30
2022-09-24T05:29:18.119Z,21.30
2022-09-24T05:31:46.534Z,21.23
2022-09-24T05:34:15.072Z,20.63
2022-09-24T05:36:46.098Z,20.83
2022-09-24T05:39:14.286Z,20.83
2022-09-24T05:41:43.698Z,21.50
2022-09-24T05:44:12.301Z,20.73
2022-09-24T05:46:40.596Z,19.07
2022-09-24T05:49:08.824Z,19.50
2022-09-24T05:51:37.076Z,20.60
2022-09-24T05:54:06.942Z,20.40
2022-09-24T05:56:35.241Z,20.33
2022-09-24T05:59:03.432Z,21.17
2022-09-24T06:01:31.629Z,19.70
2022-09-24T06:04:02.487Z,19.87
2022-09-24T06:06:32.934Z,19.20
2022-09-24T06:09:01.324Z,18.47
2022-09-24T06:11:39.774Z,19.50
2022-09-24T06:14:09.187Z,19.03
2022-09-24T06:16:37.822Z,19.20
2022-09-24T06:19:06.181Z,20.10
2022-09-24T06:21:34.378Z,19.83
2022-09-24T06:24:03.248Z,20.37
2022-09-24T06:26:33.604Z,19.00
2022-09-24T06:29:04.860Z,18.97
2022-09-24T06:31:34.973Z,17.40
2022-09-24T06:34:03.875Z,15.20
2022-09-24T06:36:32.071Z,16.50
2022-09-24T06:39:00.274Z,16.10
2022-09-24T06:41:28.546Z,15.80
2022-09-24T06:43:58.250Z,15.90
2022-09-24T06:46:26.938Z,16.67
2022-09-24T06:48:55.578Z,15.50
2022-09-24T06:51:23.680Z,16.67
2022-09-24T06:53:52.616Z,16.47
2022-09-24T06:56:20.977Z,16.53
2022-09-24T06:58:49.196Z,17.17
2022-09-24T07:01:19.153Z,17.73
2022-09-24T07:03:47.322Z,17.93
2022-09-24T07:06:15.572Z,17.37
2022-09-24T07:08:44.003Z,17.13
2022-09-24T07:11:15.339Z,16.47
2022-09-24T07:13:43.476Z,16.33
2022-09-24T07:16:11.655Z,18.07
2022-09-24T07:18:41.256Z,15.40
2022-09-24T07:21:09.377Z,15.90
2022-09-24T07:23:37.498Z,15.97
2022-09-24T07:26:05.704Z,15.67
2022-09-24T07:28:33.866Z,15.07
2022-09-24T07:31:02.080Z,14.77
2022-09-24T07:33:32.013Z,16.13
2022-09-24T07:36:05.976Z,16.70
2022-09-24T07:38:34.336Z,14.20
2022-09-24T07:41:03.864Z,14.13
2022-09-24T07:43:33.429Z,13.33
2022-09-24T07:46:01.534Z,13.57
2022-09-24T07:48:29.626Z,13.10
2022-09-24T07:50:57.744Z,12.23
2022-09-24T07:53:27.318Z,12.30
2022-09-24T07:55:56.419Z,11.63
2022-09-24T07:58:24.579Z,11.40
2022-09-24T08:00:52.676Z,11.23
2022-09-24T08:03:21.109Z,12.87
2022-09-24T08:05:49.592Z,11.97
2022-09-24T08:08:19.682Z,11.70
2022-09-24T08:10:49.253Z,11.53
2022-09-24T08:13:17.365Z,11.67
2022-09-24T08:15:45.564Z,11.23
2022-09-24T08:18:13.864Z,10.73
2022-09-24T08:20:42.526Z,11.47
2022-09-24T08:23:11.241Z,9.67
2022-09-24T08:25:39.399Z,9.23
2022-09-24T08:28:10.839Z,8.13
2022-09-24T08:30:39.865Z,8.17
2022-09-24T08:33:08.047Z,7.47
2022-09-24T08:35:36.334Z,7.70
2022-09-24T08:38:04.609Z,7.63
2022-09-24T08:40:35.396Z,8.07
2022-09-24T08:43:07.826Z,7.27
2022-09-24T08:45:59.747Z,7.30
2022-09-24T08:48:29.728Z,7.70
2022-09-24T08:51:00.976Z,7.60
2022-09-24T08:53:31.661Z,7.43
2022-09-24T08:56:00.608Z,7.00
2022-09-24T08:58:33.220Z,6.60
2022-09-24T09:01:08.661Z,6.87
2022-09-24T09:03:38.258Z,6.23
2022-09-24T09:06:10.667Z,6.70
2022-09-24T09:09:01.836Z,6.90
2022-09-24T09:11:33.127Z,6.80
2022-09-24T09:14:02.326Z,6.27
2022-09-24T09:16:35.287Z,6.50
2022-09-24T09:19:06.165Z,6.57
2022-09-24T09:21:39.082Z,6.77
2022-09-24T09:24:07.801Z,6.37
2022-09-24T09:26:36.085Z,6.17
2022-09-24T09:29:04.332Z,6.50
2022-09-24T09:31:38.775Z,5.97
2022-09-24T09:34:22.107Z,6.27
2022-09-24T09:36:56.841Z,6.20
2022-09-24T09:39:33.384Z,7.50
2022-09-24T09:42:06.370Z,7.47
2022-09-24T09:44:39.807Z,7.00
2022-09-24T09:47:16.730Z,7.90
2022-09-24T09:49:44.981Z,7.40
2022-09-24T09:52:15.077Z,6.63
2022-09-24T09:54:44.269Z,7.30
2022-09-24T09:57:14.406Z,6.43
2022-09-24T09:59:42.563Z,5.53
2022-09-24T10:02:16.430Z,5.03
2022-09-24T10:04:44.782Z,4.60
2022-09-24T10:07:14.129Z,4.50
2022-09-24T10:09:43.266Z,4.50
2022-09-24T10:12:16.392Z,4.00
2022-09-24T10:14:44.628Z,4.40
2022-09-24T10:17:15.062Z,4.97
2022-09-24T10:19:44.179Z,4.83
2022-09-24T10:22:16.613Z,4.60
2022-09-24T10:24:44.898Z,4.33
2022-09-24T10:27:13.431Z,4.80
2022-09-24T10:29:59.062Z,4.90
2022-09-24T10:32:29.829Z,4.60
2022-09-24T10:34:58.526Z,5.97
2022-09-24T10:37:26.639Z,4.47
2022-09-24T10:40:01.365Z,5.40
2022-09-24T10:42:31.110Z,5.23
2022-09-24T10:45:02.209Z,5.27
2022-09-24T10:47:35.361Z,5.20
2022-09-24T10:50:22.326Z,4.37
2022-09-24T10:52:52.986Z,4.67
2022-09-24T10:55:27.634Z,5.17
2022-09-24T10:58:02.831Z,5.17
2022-09-24T11:00:35.945Z,4.23
2022-09-24T11:03:33.718Z,4.00
2022-09-24T11:06:02.747Z,3.80
2022-09-24T11:08:52.839Z,3.43
2022-09-24T11:11:26.870Z,3.10
2022-09-24T11:14:00.028Z,3.67
2022-09-24T11:16:41.373Z,3.60
2022-09-24T11:19:14.592Z,3.60
2022-09-24T11:22:01.527Z,3.33
2022-09-24T11:24:39.775Z,3.87
2022-09-24T11:27:18.371Z,3.73
2022-09-24T11:30:02.717Z,4.10
2022-09-24T11:32:35.013Z,4.27
2022-09-24T11:35:23.353Z,3.60
2022-09-24T11:37:57.360Z,3.33
2022-09-24T11:40:45.404Z,2.80
2022-09-24T11:43:23.532Z,3.13
2022-09-24T11:45:59.138Z,2.80
2022-09-24T11:48:47.510Z,3.23
2022-09-24T11:51:23.258Z,3.00
2022-09-24T11:53:54.491Z,3.03
2022-09-24T11:56:24.128Z,2.80
2022-09-24T11:58:53.985Z,3.10
2022-09-24T12:01:23.428Z,3.10
2022-09-24T12:03:54.263Z,2.43
2022-09-24T12:06:26.142Z,2.77
2022-09-24T12:08:56.883Z,3.00
2022-09-24T12:11:28.332Z,2.70
2022-09-24T12:13:57.634Z,2.90
2022-09-24T12:16:27.645Z,3.10
2022-09-24T12:18:57.083Z,3.00
2022-09-24T12:21:28.251Z,3.10
2022-09-24T12:24:02.695Z,3.40
2022-09-24T12:26:32.689Z,2.87
2022-09-24T12:29:21.617Z,3.20
2022-09-24T12:32:11.022Z,2.73
2022-09-24T12:34:43.252Z,2.87
2022-09-24T12:37:14.103Z,3.43
2022-09-24T12:39:45.917Z,3.30
2022-09-24T12:42:14.154Z,3.10
2022-09-24T12:44:44.148Z,3.43
2022-09-24T12:47:18.333Z,3.30
2022-09-24T12:49:53.937Z,3.73
2022-09-24T12:52:27.433Z,2.93
2022-09-24T12:54:56.892Z,2.97
2022-09-24T12:57:26.407Z,3.13
2022-09-24T12:59:55.366Z,2.63
2022-09-24T13:02:24.812Z,2.80
2022-09-24T13:05:15.152Z,2.80
2022-09-24T13:07:45.402Z,2.50
2022-09-24T13:10:26.368Z,2.40
2022-09-24T13:12:54.655Z,2.90
2022-09-24T13:15:33.573Z,3.00
2022-09-24T13:18:04.488Z,3.20
2022-09-24T13:20:32.982Z,3.30
2022-09-24T13:23:13.669Z,3.70
2022-09-24T13:25:41.902Z,3.50
2022-09-24T13:28:23.527Z,3.57
2022-09-24T13:30:53.462Z,3.50
2022-09-24T13:33:24.256Z,3.33
2022-09-24T13:36:07.706Z,3.37
2022-09-24T13:38:55.952Z,3.27
2022-09-24T13:41:27.952Z,3.27
2022-09-24T13:43:57.871Z,2.70
2022-09-24T13:46:26.120Z,3.43
2022-09-24T13:48:55.242Z,3.03
2022-09-24T13:51:26.609Z,3.17
2022-09-24T13:53:57.996Z,2.77
2022-09-24T13:56:26.436Z,4.10
2022-09-24T13:58:54.492Z,4.07
2022-09-24T14:01:24.532Z,3.40
2022-09-24T14:03:53.542Z,3.47
2022-09-24T14:06:23.095Z,3.37
2022-09-24T14:08:51.689Z,3.20
2022-09-24T14:11:24.384Z,3.60
2022-09-24T14:13:52.572Z,4.20
2022-09-24T14:16:21.552Z,3.43
2022-09-24T14:18:49.702Z,3.80
2022-09-24T14:21:20.316Z,4.10
2022-09-24T14:23:49.603Z,4.50
2022-09-24T14:26:24.094Z,3.70
2022-09-24T14:28:52.229Z,3.73
2022-09-24T14:31:20.344Z,3.57
2022-09-24T14:33:48.476Z,3.60
2022-09-24T14:36:16.702Z,3.73
2022-09-24T14:38:53.950Z,3.50
2022-09-24T14:41:24.351Z,3.67
2022-09-24T14:43:53.787Z,3.87
2022-09-24T14:46:23.703Z,3.63
2022-09-24T14:48:52.359Z,3.90
2022-09-24T14:51:25.827Z,4.10
2022-09-24T14:53:59.324Z,3.80
2022-09-24T14:56:31.402Z,3.90
2022-09-24T14:58:59.523Z,3.77
2022-09-24T15:01:31.917Z,3.13
2022-09-24T15:04:01.603Z,3.50
2022-09-24T15:06:30.028Z,3.83
2022-09-24T15:09:00.809Z,3.67
2022-09-24T15:11:31.576Z,3.83
2022-09-24T15:14:00.922Z,3.80
2022-09-24T15:16:33.929Z,3.83
2022-09-24T15:19:23.371Z,3.77
2022-09-24T15:21:52.459Z,3.80
2022-09-24T15:24:20.787Z,4.07
2022-09-24T15:26:51.260Z,3.83
2022-09-24T15:29:23.388Z,3.80
2022-09-24T15:31:51.572Z,4.20
2022-09-24T15:34:20.292Z,4.00
2022-09-24T15:36:48.721Z,3.80
2022-09-24T15:39:16.828Z,3.73
2022-09-24T15:41:44.979Z,4.13
2022-09-24T15:44:18.379Z,3.97
2022-09-24T15:46:48.252Z,3.90
2022-09-24T15:49:16.502Z,4.23
2022-09-24T15:51:44.713Z,4.13
2022-09-24T15:54:12.768Z,3.60
2022-09-24T15:56:44.265Z,4.20
2022-09-24T15:59:15.519Z,4.17
2022-09-24T16:01:43.890Z,4.77
2022-09-24T16:04:12.790Z,4.20
2022-09-24T16:06:40.946Z,4.90
2022-09-24T16:09:09.326Z,4.97
2022-09-24T16:11:37.664Z,4.87
2022-09-24T16:14:06.663Z,4.50
2022-09-24T16:16:36.260Z,4.70
2022-09-24T16:19:04.362Z,4.80
2022-09-24T16:21:32.980Z,4.60
2022-09-24T16:24:01.427Z,5.17
2022-09-24T16:26:29.769Z,6.10
2022-09-24T16:28:57.866Z,6.80
2022-09-24T16:31:26.123Z,8.40
2022-09-24T16:33:55.604Z,9.90
2022-09-24T16:36:24.598Z,9.70
2022-09-24T16:38:52.890Z,9.60
2022-09-24T16:41:21.109Z,9.90
2022-09-24T16:43:49.283Z,13.03
2022-09-24T16:46:20.686Z,13.83
2022-09-24T16:48:50.424Z,12.13
2022-09-24T16:51:20.082Z,12.83
2022-09-24T16:53:49.127Z,13.80
2022-09-24T16:56:18.095Z,14.30
2022-09-24T16:58:47.205Z,15.13
2022-09-24T17:01:16.547Z,14.63
2022-09-24T17:03:44.744Z,14.23
2022-09-24T17:06:20.152Z,12.23
2022-09-24T17:09:05.528Z,11.37
2022-09-24T17:11:33.846Z,10.50
2022-09-24T17:14:01.974Z,10.20
2022-09-24T17:16:30.652Z,9.87
2022-09-24T17:18:58.965Z,9.27
2022-09-24T17:21:28.670Z,9.97
2022-09-24T17:23:56.768Z,10.53
2022-09-24T17:26:25.196Z,9.67
2022-09-24T17:28:54.374Z,9.67
2022-09-24T17:31:23.500Z,8.80
2022-09-24T17:33:57.128Z,8.40
2022-09-24T17:36:25.958Z,9.10
2022-09-24T17:38:56.250Z,9.00
2022-09-24T17:41:24.533Z,9.00
2022-09-24T17:43:52.626Z,8.80
2022-09-24T17:46:22.794Z,8.07
2022-09-24T17:48:53.115Z,8.70
2022-09-24T17:51:22.846Z,7.90
2022-09-24T17:53:51.799Z,8.17
2022-09-24T17:56:22.008Z,7.53
2022-09-24T17:58:50.075Z,7.30
2022-09-24T18:01:19.837Z,8.47
2022-09-24T18:03:49.608Z,7.07
2022-09-24T18:06:17.860Z,6.80
2022-09-24T18:08:46.705Z,7.37
2022-09-24T18:11:15.515Z,6.60
2022-09-24T18:13:45.109Z,6.90
2022-09-24T18:16:14.090Z,7.13
2022-09-24T18:18:42.862Z,6.83
2022-09-24T18:21:11.844Z,6.00
2022-09-24T18:23:40.000Z,6.50
2022-09-24T18:26:10.691Z,7.23
2022-09-24T18:28:39.875Z,7.30
2022-09-24T18:31:11.389Z,6.97
2022-09-24T18:33:40.562Z,6.90
2022-09-24T18:36:09.922Z,7.27
2022-09-24T18:38:38.058Z,6.80
2022-09-24T18:41:08.646Z,7.67
2022-09-24T18:43:36.856Z,7.33
2022-09-24T18:46:05.364Z,6.83
2022-09-24T18:48:35.350Z,7.53
2022-09-24T18:51:03.555Z,7.47
2022-09-24T18:53:31.948Z,7.77
2022-09-24T18:56:00.184Z,7.53
2022-09-24T18:58:28.384Z,7.67
2022-09-24T19:00:59.597Z,7.70
2022-09-24T19:03:28.536Z,8.60
2022-09-24T19:06:01.482Z,8.70
2022-09-24T19:08:32.199Z,9.63
2022-09-24T19:11:03.048Z,8.57
2022-09-24T19:13:31.695Z,9.30
2022-09-24T19:16:04.736Z,9.57
2022-09-24T19:18:33.495Z,9.47
2022-09-24T19:21:03.744Z,9.27
2022-09-24T19:23:32.079Z,10.43
2022-09-24T19:26:03.589Z,9.90
2022-09-24T19:28:31.807Z,9.70
2022-09-24T19:31:00.095Z,10.97
2022-09-24T19:33:28.311Z,10.53
2022-09-24T19:35:57.947Z,10.53
2022-09-24T19:38:28.623Z,10.87
2022-09-24T19:40:58.867Z,12.50
2022-09-24T19:43:27.105Z,11.53
2022-09-24T19:45:58.314Z,11.77
2022-09-24T19:48:27.177Z,11.07
2022-09-24T19:50:55.375Z,12.17
2022-09-24T19:53:23.552Z,12.17
2022-09-24T19:55:53.268Z,12.63
2022-09-24T19:58:21.356Z,11.93
2022-09-24T20:00:49.768Z,12.13
2022-09-24T20:03:18.482Z,12.00
2022-09-24T20:05:46.706Z,12.90
2022-09-24T20:08:14.899Z,12.50
2022-09-24T20:10:43.286Z,12.87
2022-09-24T20:13:13.085Z,12.93
2022-09-24T20:15:41.537Z,13.07
2022-09-24T20:18:11.013Z,14.03
2022-09-24T20:20:39.826Z,13.27
2022-09-24T20:23:08.884Z,14.07
2022-09-24T20:25:54.465Z,14.57
2022-09-24T20:28:24.043Z,14.17
2022-09-24T20:30:52.267Z,15.03
2022-09-24T20:33:20.948Z,13.57
2022-09-24T20:35:50.362Z,14.30
2022-09-24T20:38:18.815Z,15.20
2022-09-24T20:40:46.928Z,15.87
2022-09-24T20:43:17.126Z,15.67
2022-09-24T20:45:46.716Z,15.80
2022-09-24T20:48:14.834Z,14.97
2022-09-24T20:50:43.137Z,14.93
2022-09-24T20:53:11.426Z,15.70
2022-09-24T20:55:40.186Z,15.00
2022-09-24T20:58:09.194Z,16.10
2022-09-24T21:00:48.269Z,15.57
2022-09-24T21:03:42.262Z,14.57
2022-09-24T21:06:08.205Z,15.43
2022-09-24T21:08:36.959Z,15.93
2022-09-24T21:11:05.805Z,16.03
2022-09-24T21:13:34.034Z,14.70
2022-09-24T21:16:04.689Z,15.83
2022-09-24T21:18:40.116Z,15.20
2022-09-24T21:21:11.340Z,14.93
2022-09-24T21:23:39.719Z,15.73
2022-09-24T21:26:12.785Z,14.67
2022-09-24T21:28:40.967Z,15.97
2022-09-24T21:31:09.158Z,15.57
2022-09-24T21:33:38.649Z,15.60
2022-09-24T21:36:08.012Z,15.83
2022-09-24T21:38:37.211Z,15.33
2022-09-24T21:41:05.446Z,15.20
2022-09-24T21:43:34.919Z,15.13
2022-09-24T21:46:04.200Z,14.80
2022-09-24T21:48:32.418Z,14.83
2022-09-24T21:51:05.883Z,15.43
2022-09-24T21:53:34.296Z,13.70
2022-09-24T21:56:02.880Z,15.27
2022-09-24T21:58:30.953Z,14.47
2022-09-24T22:01:04.291Z,14.57
2022-09-24T22:03:33.308Z,14.73
2022-09-24T22:06:05.205Z,14.73
2022-09-24T22:08:33.305Z,14.87
2022-09-24T22:11:02.319Z,14.13
2022-09-24T22:13:31.280Z,14.87
2022-09-24T22:15:59.944Z,15.53
2022-09-24T22:18:28.290Z,16.17
2022-09-24T22:20:56.491Z,15.97
2022-09-24T22:23:26.005Z,15.47
2022-09-24T22:25:57.395Z,15.47
2022-09-24T22:28:25.741Z,17.17
2022-09-24T22:30:54.003Z,17.10
2022-09-24T22:33:39.608Z,17.33
2022-09-24T22:36:07.878Z,18.17
2022-09-24T22:38:37.586Z,17.67
2022-09-24T22:41:06.550Z,19.17
2022-09-24T22:43:34.889Z,19.53
2022-09-24T22:46:04.097Z,19.77
2022-09-24T22:48:32.352Z,18.40
2022-09-24T22:51:00.479Z,18.90
2022-09-24T22:53:28.576Z,20.23
2022-09-24T22:56:05.629Z,20.73
2022-09-24T22:58:34.096Z,21.87
2022-09-24T23:01:08.771Z,20.03
2022-09-24T23:03:37.075Z,19.80
2022-09-24T23:06:06.261Z,20.80
2022-09-24T23:08:34.496Z,20.67
2022-09-24T23:11:08.355Z,20.23
2022-09-24T23:13:37.578Z,21.00
2022-09-24T23:16:10.399Z,20.37
2022-09-24T23:18:38.606Z,19.73
2022-09-24T23:21:07.810Z,18.60
2022-09-24T23:23:36.245Z,19.83
2022-09-24T23:26:05.503Z,19.77
2022-09-24T23:28:35.328Z,20.23
2022-09-24T23:31:03.657Z,20.07
2022-09-24T23:33:33.188Z,19.67
2022-09-24T23:36:01.745Z,19.50
2022-09-24T23:38:30.213Z,19.83
2022-09-24T23:40:58.827Z,18.87
2022-09-24T23:43:27.461Z,19.60
2022-09-24T23:45:56.963Z,20.50
2022-09-24T23:48:25.666Z,19.47
2022-09-24T23:50:53.733Z,19.60
2022-09-24T23:53:22.663Z,18.97
2022-09-24T23:55:51.071Z,20.37
2022-09-24T23:58:20.289Z,19.97
